createdAt,value
2018-01-10T00:00:01.609Z,1.8
2018-01-10T00:05:01.513Z,1.8
2018-01-10T00:10:02.372Z,1.8
2018-01-10T00:15:02.024Z,1.7
2018-01-10T00:20:01.753Z,1.7
2018-01-10T00:25:01.737Z,1.7
2018-01-10T00:30:02.108Z,1.7
2018-01-10T00:35:01.773Z,1.7
2018-01-10T00:40:01.728Z,1.7
2018-01-10T00:45:01.961Z,1.7
2018-01-10T00:50:01.931Z,1.7
2018-01-10T00:55:01.887Z,1.7
2018-01-10T01:00:01.822Z,1.7
2018-01-10T01:05:01.799Z,1.7
2018-01-10T01:10:01.563Z,1.7
2018-01-10T01:15:01.843Z,1.7
2018-01-10T01:20:02.094Z,1.7
2018-01-10T01:25:01.228Z,1.7
2018-01-10T01:30:01.331Z,1.7
2018-01-10T01:35:01.406Z,1.7
2018-01-10T01:40:01.964Z,1.7
2018-01-10T01:45:01.702Z,1.7
2018-01-10T01:50:01.528Z,1.7
2018-01-10T01:55:01.671Z,1.7
2018-01-10T02:00:01.452Z,1.7
2018-01-10T02:05:01.716Z,1.7
2018-01-10T02:10:02.017Z,1.8
2018-01-10T02:15:01.787Z,1.8
2018-01-10T02:20:01.685Z,1.8
2018-01-10T02:25:01.862Z,1.8
2018-01-10T02:30:01.584Z,1.8
2018-01-10T02:35:01.173Z,1.8
2018-01-10T02:40:02.462Z,1.7
2018-01-10T02:45:01.284Z,1.7
2018-01-10T02:50:01.235Z,1.7
2018-01-10T02:55:01.606Z,1.7
2018-01-10T03:00:02.039Z,1.7
2018-01-10T03:05:01.265Z,1.7
2018-01-10T03:10:01.390Z,1.7
2018-01-10T03:15:02.516Z,1.7
2018-01-10T03:20:01.332Z,1.7
2018-01-10T03:25:01.538Z,1.7
2018-01-10T03:30:01.681Z,1.7
2018-01-10T03:35:02.596Z,1.7
2018-01-10T03:40:01.258Z,1.7
2018-01-10T03:45:01.247Z,1.7
2018-01-10T03:50:02.000Z,1.7
2018-01-10T03:55:02.464Z,1.8
2018-01-10T04:00:01.405Z,1.8
2018-01-10T04:05:02.104Z,1.8
2018-01-10T04:10:02.017Z,1.8
2018-01-10T04:15:01.997Z,1.8
2018-01-10T04:20:01.944Z,1.7
2018-01-10T04:25:01.453Z,1.7
2018-01-10T04:30:02.052Z,1.7
2018-01-10T04:35:01.653Z,1.7
2018-01-10T04:40:01.711Z,1.7
2018-01-10T04:45:02.180Z,1.7
2018-01-10T04:50:02.175Z,1.6
2018-01-10T04:55:01.586Z,1.6
2018-01-10T05:00:01.704Z,1.6
2018-01-10T05:05:02.204Z,1.6
2018-01-10T05:10:01.827Z,1.6
2018-01-10T05:15:01.709Z,1.6
2018-01-10T05:20:01.678Z,1.7
2018-01-10T05:25:01.856Z,1.7
2018-01-10T05:30:01.253Z,1.7
2018-01-10T05:35:01.570Z,1.7
2018-01-10T05:40:01.628Z,1.7
2018-01-10T05:45:01.712Z,1.7
2018-01-10T05:50:01.884Z,1.7
2018-01-10T05:55:02.222Z,1.7
2018-01-10T06:00:01.277Z,1.7
2018-01-10T06:05:01.255Z,1.7
2018-01-10T06:10:02.586Z,1.7
2018-01-10T06:15:02.000Z,1.7
2018-01-10T06:20:02.156Z,1.7
2018-01-10T06:25:01.173Z,1.7
2018-01-10T06:30:01.608Z,1.7
2018-01-10T06:35:01.291Z,1.7
2018-01-10T06:40:01.190Z,1.7
2018-01-10T06:45:01.702Z,1.7
2018-01-10T06:50:01.632Z,1.5
2018-01-10T06:55:01.261Z,1.5
2018-01-10T07:00:01.979Z,1.5
2018-01-10T07:05:02.089Z,1.4
2018-01-10T07:10:01.458Z,1.4
2018-01-10T07:15:02.499Z,1.4
2018-01-10T07:20:01.328Z,1.4
2018-01-10T07:25:02.032Z,1.4
2018-01-10T07:30:01.251Z,1.4
2018-01-10T07:35:02.361Z,1.4
2018-01-10T07:40:01.284Z,1.4
2018-01-10T07:45:02.030Z,1.5
2018-01-10T07:50:02.031Z,1.6
2018-01-10T07:55:02.221Z,1.6
2018-01-10T08:00:01.251Z,1.6
2018-01-10T08:05:01.856Z,1.7
2018-01-10T08:10:01.723Z,1.7
2018-01-10T08:15:02.014Z,1.7
2018-01-10T08:20:01.823Z,1.7
2018-01-10T08:25:01.772Z,1.8
2018-01-10T08:30:03.023Z,1.8
2018-01-10T08:35:02.011Z,1.8
2018-01-10T08:40:01.887Z,1.9
2018-01-10T08:45:01.193Z,1.9
2018-01-10T08:50:02.590Z,1.9
2018-01-10T08:55:01.567Z,1.9
2018-01-10T09:00:01.741Z,1.9
2018-01-10T09:05:02.536Z,1.9
2018-01-10T09:10:01.246Z,2.2
2018-01-10T09:15:01.847Z,2.3
2018-01-10T09:20:01.634Z,2.3
2018-01-10T09:25:02.200Z,2.4
2018-01-10T09:30:01.359Z,2.5
2018-01-10T09:35:02.154Z,2.5
2018-01-10T09:40:02.073Z,2.6
2018-01-10T09:45:02.038Z,2.7
2018-01-10T09:50:01.974Z,2.8
2018-01-10T09:55:01.835Z,2.9
2018-01-10T10:00:02.398Z,2.9
2018-01-10T10:05:01.798Z,2.9
2018-01-10T10:10:01.844Z,2.9
2018-01-10T10:15:01.884Z,2.9
2018-01-10T10:20:01.852Z,2.9
2018-01-10T10:25:01.526Z,2.9
2018-01-10T10:30:01.249Z,3
2018-01-10T10:35:02.237Z,3
2018-01-10T10:40:01.180Z,3.1
2018-01-10T10:45:01.445Z,3.1
2018-01-10T10:50:01.524Z,3.1
2018-01-10T10:55:02.315Z,3.1
2018-01-10T11:00:01.722Z,3.1
2018-01-10T11:05:01.604Z,3.1
2018-01-10T11:10:01.542Z,3.1
2018-01-10T11:15:02.148Z,3.2
2018-01-10T11:20:01.756Z,3.2
2018-01-10T11:25:01.859Z,3.3
2018-01-10T11:30:01.468Z,3.3
2018-01-10T11:35:01.638Z,3.4
2018-01-10T11:40:01.444Z,3.4
2018-01-10T11:45:01.581Z,3.5
2018-01-10T11:50:01.802Z,3.5
2018-01-10T11:55:01.666Z,3.6
2018-01-10T12:00:02.126Z,3.6
2018-01-10T12:05:01.198Z,3.7
2018-01-10T12:10:01.695Z,3.7
2018-01-10T12:15:01.309Z,3.8
2018-01-10T12:20:02.040Z,3.9
2018-01-10T12:25:02.289Z,3.9
2018-01-10T12:30:02.208Z,3.9
2018-01-10T12:35:01.566Z,3.9
2018-01-10T12:40:01.771Z,4.1
2018-01-10T12:45:01.981Z,4.1
2018-01-10T12:50:01.422Z,4.1
2018-01-10T12:55:02.278Z,4.1
2018-01-10T13:00:01.298Z,4.3
2018-01-10T13:05:02.217Z,4.3
2018-01-10T13:10:01.727Z,4.1
2018-01-10T13:15:01.596Z,4.1
2018-01-10T13:20:01.321Z,4.1
2018-01-10T13:25:02.065Z,4.1
2018-01-10T13:30:01.537Z,4.1
2018-01-10T13:35:01.890Z,3.9
2018-01-10T13:40:02.042Z,3.9
2018-01-10T13:45:01.688Z,3.9
2018-01-10T13:50:02.113Z,3.9
2018-01-10T13:55:02.526Z,3.9
2018-01-10T14:00:02.046Z,3.9
2018-01-10T14:05:02.294Z,3.9
2018-01-10T14:10:02.867Z,3.9
2018-01-10T14:15:01.854Z,3.9
2018-01-10T14:20:02.186Z,3.6
2018-01-10T14:25:01.964Z,3.6
2018-01-10T14:30:02.160Z,3.6
2018-01-10T14:35:01.837Z,3.6
2018-01-10T14:40:01.289Z,3.6
2018-01-10T14:45:02.405Z,3.2
2018-01-10T14:50:01.317Z,3.2
2018-01-10T14:55:02.159Z,3.2
2018-01-10T15:00:01.886Z,3
2018-01-10T15:05:02.564Z,3
2018-01-10T15:10:02.050Z,2.8
2018-01-10T15:15:01.841Z,2.7
2018-01-10T15:20:01.606Z,2.7
2018-01-10T15:25:02.187Z,2.7
2018-01-10T15:30:01.259Z,2.7
2018-01-10T15:35:01.501Z,2.7
2018-01-10T15:40:01.322Z,2.3
2018-01-10T15:45:02.377Z,2.2
2018-01-10T15:50:01.143Z,2
2018-01-10T15:55:01.419Z,2
2018-01-10T16:00:01.403Z,2
2018-01-10T16:05:02.466Z,2
2018-01-10T16:10:01.402Z,2
2018-01-10T16:15:01.494Z,2
2018-01-10T16:20:01.954Z,2
2018-01-10T16:25:02.278Z,2
2018-01-10T16:30:01.305Z,2
2018-01-10T16:35:01.500Z,2
2018-01-10T16:40:01.395Z,2
2018-01-10T16:45:02.307Z,2
2018-01-10T16:50:01.336Z,2
2018-01-10T16:55:01.837Z,0.8
2018-01-10T17:00:01.213Z,0.8
2018-01-10T17:05:02.078Z,0.7
2018-01-10T17:10:01.840Z,0.6
2018-01-10T17:15:01.783Z,0.5
2018-01-10T17:20:01.736Z,0.5
2018-01-10T17:25:01.990Z,0.5
2018-01-10T17:30:02.119Z,0.5
2018-01-10T17:35:01.149Z,0.5
2018-01-10T17:40:02.643Z,0.5
2018-01-10T17:45:01.188Z,1.2
2018-01-10T17:50:01.487Z,1.2
2018-01-10T17:55:01.820Z,1.2
2018-01-10T18:00:02.324Z,1.2
2018-01-10T18:05:01.272Z,1.7
2018-01-10T18:10:01.519Z,1.7
2018-01-10T18:15:01.358Z,1.8
2018-01-10T18:20:02.026Z,1.8
2018-01-10T18:25:01.412Z,1.9
2018-01-10T18:30:02.183Z,1.9
2018-01-10T18:35:01.923Z,1.9
2018-01-10T18:40:02.433Z,2
2018-01-10T18:45:01.573Z,2
2018-01-10T18:50:02.044Z,2
2018-01-10T18:55:01.725Z,2
2018-01-10T19:00:02.278Z,1.9
2018-01-10T19:05:01.775Z,2
2018-01-10T19:10:02.089Z,2
2018-01-10T19:15:01.946Z,2
2018-01-10T19:20:02.627Z,2
2018-01-10T19:25:02.110Z,2
2018-01-10T19:30:01.766Z,2
2018-01-10T19:35:01.884Z,2
2018-01-10T19:40:02.731Z,2
2018-01-10T19:45:01.579Z,2
2018-01-10T19:50:01.959Z,1.2
2018-01-10T19:55:01.564Z,1.1
2018-01-10T20:00:02.292Z,1
2018-01-10T20:05:01.375Z,0.8
2018-01-10T20:10:01.223Z,0.7
2018-01-10T20:15:02.685Z,0.7
2018-01-10T20:20:01.480Z,0.6
2018-01-10T20:25:01.795Z,0.6
2018-01-10T20:30:02.432Z,0.5
2018-01-10T20:35:01.608Z,0.5
2018-01-10T20:40:01.500Z,0.5
2018-01-10T20:45:01.799Z,0.5
2018-01-10T20:50:02.338Z,0.5
2018-01-10T20:55:02.076Z,0.5
2018-01-10T21:00:01.594Z,0.5
2018-01-10T21:05:01.631Z,0.5
2018-01-10T21:10:01.772Z,0.5
2018-01-10T21:15:01.732Z,0.5
2018-01-10T21:20:01.739Z,0.5
2018-01-10T21:25:02.052Z,0.5
2018-01-10T21:30:01.275Z,0.5
2018-01-10T21:35:01.429Z,0.5
2018-01-10T21:40:01.828Z,0.8
2018-01-10T21:45:02.161Z,0.9
2018-01-10T21:50:01.882Z,0.9
2018-01-10T21:55:01.735Z,0.9
2018-01-10T22:00:01.742Z,0.9
2018-01-10T22:05:01.795Z,0.9
2018-01-10T22:10:02.217Z,0.9
2018-01-10T22:15:02.082Z,0.9
2018-01-10T22:20:01.780Z,0.9
2018-01-10T22:25:01.933Z,0.9
2018-01-10T22:30:02.091Z,0.9
2018-01-10T22:35:01.717Z,0.9
2018-01-10T22:40:01.962Z,0.9
2018-01-10T22:45:01.941Z,0.9
2018-01-10T22:50:01.812Z,0.9
2018-01-10T22:55:02.072Z,0.9
2018-01-10T23:00:01.668Z,0.9
2018-01-10T23:05:01.811Z,0.9
2018-01-10T23:10:02.707Z,0.9
2018-01-10T23:15:01.491Z,0.9
2018-01-10T23:20:02.034Z,1.9
2018-01-10T23:25:01.806Z,1.9
2018-01-10T23:30:01.914Z,1.9
2018-01-10T23:35:02.083Z,1.9
2018-01-10T23:40:01.684Z,1.9
2018-01-10T23:45:01.596Z,1.9
2018-01-10T23:50:02.526Z,1.9
2018-01-10T23:55:02.005Z,1.9
